sensor_id;sensor_type;location;lat;lon;timestamp;P1;durP1;ratioP1;P2;durP2;ratioP2
68089;SDS011;54880;50.986;6.990;2024-02-21T00:00:02;17.37;;;5.10;;
68089;SDS011;54880;50.986;6.990;2024-02-21T00:02:29;21.35;;;5.25;;
68089;SDS011;54880;50.986;6.990;2024-02-21T00:04:54;17.03;;;4.57;;
68089;SDS011;54880;50.986;6.990;2024-02-21T00:07:19;18.50;;;4.77;;
68089;SDS011;54880;50.986;6.990;2024-02-21T00:09:45;16.77;;;4.40;;
68089;SDS011;54880;50.986;6.990;2024-02-21T00:12:10;14.53;;;4.37;;
68089;SDS011;54880;50.986;6.990;2024-02-21T00:14:35;19.63;;;4.97;;
68089;SDS011;54880;50.986;6.990;2024-02-21T00:17:01;15.53;;;4.33;;
68089;SDS011;54880;50.986;6.990;2024-02-21T00:19:26;15.50;;;4.27;;
68089;SDS011;54880;50.986;6.990;2024-02-21T00:21:51;13.07;;;4.10;;
68089;SDS011;54880;50.986;6.990;2024-02-21T00:24:16;15.80;;;3.77;;
68089;SDS011;54880;50.986;6.990;2024-02-21T00:26:42;13.90;;;4.67;;
68089;SDS011;54880;50.986;6.990;2024-02-21T00:29:07;20.92;;;5.03;;
68089;SDS011;54880;50.986;6.990;2024-02-21T00:31:32;16.37;;;4.90;;
68089;SDS011;54880;50.986;6.990;2024-02-21T00:33:57;14.27;;;4.38;;
68089;SDS011;54880;50.986;6.990;2024-02-21T00:36:23;14.18;;;4.20;;
68089;SDS011;54880;50.986;6.990;2024-02-21T00:38:48;16.30;;;4.17;;
68089;SDS011;54880;50.986;6.990;2024-02-21T00:41:13;13.93;;;4.47;;
68089;SDS011;54880;50.986;6.990;2024-02-21T00:43:38;13.60;;;4.30;;
68089;SDS011;54880;50.986;6.990;2024-02-21T00:46:05;15.53;;;5.20;;
68089;SDS011;54880;50.986;6.990;2024-02-21T00:48:30;16.13;;;4.30;;
68089;SDS011;54880;50.986;6.990;2024-02-21T00:50:55;15.80;;;3.90;;
68089;SDS011;54880;50.986;6.990;2024-02-21T00:53:21;17.70;;;4.27;;
68089;SDS011;54880;50.986;6.990;2024-02-21T00:55:46;18.67;;;4.20;;
68089;SDS011;54880;50.986;6.990;2024-02-21T00:58:11;17.10;;;4.50;;
68089;SDS011;54880;50.986;6.990;2024-02-21T01:00:36;17.37;;;4.73;;
68089;SDS011;54880;50.986;6.990;2024-02-21T01:03:02;15.83;;;4.83;;
68089;SDS011;54880;50.986;6.990;2024-02-21T01:05:27;13.93;;;4.27;;
68089;SDS011;54880;50.986;6.990;2024-02-21T01:07:54;19.10;;;4.90;;
68089;SDS011;54880;50.986;6.990;2024-02-21T01:10:19;21.00;;;5.63;;
68089;SDS011;54880;50.986;6.990;2024-02-21T01:12:44;17.98;;;5.60;;
68089;SDS011;54880;50.986;6.990;2024-02-21T01:15:09;18.37;;;4.73;;
68089;SDS011;54880;50.986;6.990;2024-02-21T01:17:35;15.70;;;4.88;;
68089;SDS011;54880;50.986;6.990;2024-02-21T01:20:00;15.53;;;4.17;;
68089;SDS011;54880;50.986;6.990;2024-02-21T01:22:26;15.23;;;4.37;;
68089;SDS011;54880;50.986;6.990;2024-02-21T01:24:51;15.37;;;4.60;;
68089;SDS011;54880;50.986;6.990;2024-02-21T01:27:16;14.13;;;4.37;;
68089;SDS011;54880;50.986;6.990;2024-02-21T01:29:41;14.37;;;4.70;;
68089;SDS011;54880;50.986;6.990;2024-02-21T01:32:07;19.03;;;4.60;;
68089;SDS011;54880;50.986;6.990;2024-02-21T01:34:32;14.30;;;4.20;;
68089;SDS011;54880;50.986;6.990;2024-02-21T01:36:57;20.97;;;4.60;;
68089;SDS011;54880;50.986;6.990;2024-02-21T01:39:24;20.70;;;5.57;;
68089;SDS011;54880;50.986;6.990;2024-02-21T01:41:49;17.23;;;4.60;;
68089;SDS011;54880;50.986;6.990;2024-02-21T01:44:14;16.47;;;4.90;;
68089;SDS011;54880;50.986;6.990;2024-02-21T01:46:39;18.00;;;4.33;;
68089;SDS011;54880;50.986;6.990;2024-02-21T01:49:05;17.97;;;4.97;;
68089;SDS011;54880;50.986;6.990;2024-02-21T01:51:31;14.75;;;4.82;;
68089;SDS011;54880;50.986;6.990;2024-02-21T01:53:56;14.93;;;4.90;;
68089;SDS011;54880;50.986;6.990;2024-02-21T01:56:22;20.00;;;4.78;;
68089;SDS011;54880;50.986;6.990;2024-02-21T01:58:47;13.77;;;4.30;;
68089;SDS011;54880;50.986;6.990;2024-02-21T02:01:13;17.00;;;4.60;;
68089;SDS011;54880;50.986;6.990;2024-02-21T02:03:38;16.43;;;4.67;;
68089;SDS011;54880;50.986;6.990;2024-02-21T02:06:04;14.90;;;4.40;;
68089;SDS011;54880;50.986;6.990;2024-02-21T02:08:30;17.93;;;4.83;;
68089;SDS011;54880;50.986;6.990;2024-02-21T02:10:56;16.38;;;4.80;;
68089;SDS011;54880;50.986;6.990;2024-02-21T02:13:22;18.23;;;5.15;;
68089;SDS011;54880;50.986;6.990;2024-02-21T02:15:48;20.42;;;5.13;;
68089;SDS011;54880;50.986;6.990;2024-02-21T02:18:14;15.77;;;4.03;;
68089;SDS011;54880;50.986;6.990;2024-02-21T02:20:39;15.98;;;5.10;;
68089;SDS011;54880;50.986;6.990;2024-02-21T02:23:11;20.83;;;5.13;;
68089;SDS011;54880;50.986;6.990;2024-02-21T02:25:37;16.33;;;4.57;;
68089;SDS011;54880;50.986;6.990;2024-02-21T02:28:06;13.27;;;4.47;;
68089;SDS011;54880;50.986;6.990;2024-02-21T02:30:32;16.08;;;4.95;;
68089;SDS011;54880;50.986;6.990;2024-02-21T02:32:57;15.63;;;4.30;;
68089;SDS011;54880;50.986;6.990;2024-02-21T02:35:23;19.50;;;4.00;;
68089;SDS011;54880;50.986;6.990;2024-02-21T02:37:49;21.27;;;4.55;;
68089;SDS011;54880;50.986;6.990;2024-02-21T02:40:14;16.48;;;4.22;;
68089;SDS011;54880;50.986;6.990;2024-02-21T02:42:40;16.30;;;4.30;;
68089;SDS011;54880;50.986;6.990;2024-02-21T02:45:05;20.73;;;4.63;;
68089;SDS011;54880;50.986;6.990;2024-02-21T02:47:30;16.97;;;4.37;;
68089;SDS011;54880;50.986;6.990;2024-02-21T02:49:55;15.10;;;4.10;;
68089;SDS011;54880;50.986;6.990;2024-02-21T02:52:21;17.10;;;4.60;;
68089;SDS011;54880;50.986;6.990;2024-02-21T02:54:46;13.50;;;4.43;;
68089;SDS011;54880;50.986;6.990;2024-02-21T02:57:16;20.55;;;4.95;;
68089;SDS011;54880;50.986;6.990;2024-02-21T02:59:42;11.75;;;3.97;;
68089;SDS011;54880;50.986;6.990;2024-02-21T03:02:07;13.97;;;4.20;;
68089;SDS011;54880;50.986;6.990;2024-02-21T03:04:32;16.25;;;5.07;;
68089;SDS011;54880;50.986;6.990;2024-02-21T03:06:58;13.60;;;4.78;;
68089;SDS011;54880;50.986;6.990;2024-02-21T03:09:23;16.67;;;4.60;;
68089;SDS011;54880;50.986;6.990;2024-02-21T03:11:48;13.23;;;4.17;;
68089;SDS011;54880;50.986;6.990;2024-02-21T03:14:13;15.50;;;4.50;;
68089;SDS011;54880;50.986;6.990;2024-02-21T03:16:39;19.60;;;4.77;;
68089;SDS011;54880;50.986;6.990;2024-02-21T03:19:04;14.23;;;4.30;;
68089;SDS011;54880;50.986;6.990;2024-02-21T03:21:29;14.83;;;4.53;;
68089;SDS011;54880;50.986;6.990;2024-02-21T03:23:54;16.63;;;4.50;;
68089;SDS011;54880;50.986;6.990;2024-02-21T03:26:19;17.50;;;4.23;;
68089;SDS011;54880;50.986;6.990;2024-02-21T03:28:45;14.43;;;4.17;;
68089;SDS011;54880;50.986;6.990;2024-02-21T03:31:13;14.23;;;4.00;;
68089;SDS011;54880;50.986;6.990;2024-02-21T03:33:39;11.35;;;4.30;;
68089;SDS011;54880;50.986;6.990;2024-02-21T03:36:05;16.33;;;4.03;;
68089;SDS011;54880;50.986;6.990;2024-02-21T03:38:30;15.07;;;4.05;;
68089;SDS011;54880;50.986;6.990;2024-02-21T03:40:56;13.88;;;3.88;;
68089;SDS011;54880;50.986;6.990;2024-02-21T03:43:21;20.80;;;4.23;;
68089;SDS011;54880;50.986;6.990;2024-02-21T03:45:46;15.03;;;4.17;;
68089;SDS011;54880;50.986;6.990;2024-02-21T03:48:11;14.43;;;4.30;;
68089;SDS011;54880;50.986;6.990;2024-02-21T03:50:37;13.37;;;4.37;;
68089;SDS011;54880;50.986;6.990;2024-02-21T03:53:02;13.77;;;4.73;;
68089;SDS011;54880;50.986;6.990;2024-02-21T03:55:27;13.70;;;4.20;;
68089;SDS011;54880;50.986;6.990;2024-02-21T03:57:53;13.63;;;3.87;;
68089;SDS011;54880;50.986;6.990;2024-02-21T04:00:18;15.20;;;4.50;;
68089;SDS011;54880;50.986;6.990;2024-02-21T04:02:43;14.47;;;4.13;;
68089;SDS011;54880;50.986;6.990;2024-02-21T04:05:08;14.20;;;4.80;;
68089;SDS011;54880;50.986;6.990;2024-02-21T04:07:36;17.33;;;4.32;;
68089;SDS011;54880;50.986;6.990;2024-02-21T04:10:01;16.63;;;4.67;;
68089;SDS011;54880;50.986;6.990;2024-02-21T04:12:27;14.00;;;4.32;;
68089;SDS011;54880;50.986;6.990;2024-02-21T04:14:52;13.87;;;4.40;;
68089;SDS011;54880;50.986;6.990;2024-02-21T04:17:17;17.70;;;4.30;;
68089;SDS011;54880;50.986;6.990;2024-02-21T04:19:42;12.07;;;3.70;;
68089;SDS011;54880;50.986;6.990;2024-02-21T04:22:08;17.20;;;4.00;;
68089;SDS011;54880;50.986;6.990;2024-02-21T04:24:33;15.53;;;5.13;;
68089;SDS011;54880;50.986;6.990;2024-02-21T04:26:58;17.53;;;4.23;;
68089;SDS011;54880;50.986;6.990;2024-02-21T04:29:23;13.60;;;3.90;;
68089;SDS011;54880;50.986;6.990;2024-02-21T04:31:49;16.37;;;4.50;;
68089;SDS011;54880;50.986;6.990;2024-02-21T04:34:14;15.13;;;4.87;;
68089;SDS011;54880;50.986;6.990;2024-02-21T04:36:39;17.07;;;4.50;;
68089;SDS011;54880;50.986;6.990;2024-02-21T04:39:04;13.53;;;4.50;;
68089;SDS011;54880;50.986;6.990;2024-02-21T04:41:30;14.60;;;4.30;;
68089;SDS011;54880;50.986;6.990;2024-02-21T04:43:55;15.80;;;5.00;;
68089;SDS011;54880;50.986;6.990;2024-02-21T04:46:20;15.03;;;3.80;;
68089;SDS011;54880;50.986;6.990;2024-02-21T04:48:45;17.63;;;4.50;;
68089;SDS011;54880;50.986;6.990;2024-02-21T04:51:11;12.87;;;4.20;;
68089;SDS011;54880;50.986;6.990;2024-02-21T04:53:37;14.17;;;4.47;;
68089;SDS011;54880;50.986;6.990;2024-02-21T04:56:02;13.23;;;4.25;;
68089;SDS011;54880;50.986;6.990;2024-02-21T04:58:27;14.23;;;3.93;;
68089;SDS011;54880;50.986;6.990;2024-02-21T05:00:53;16.30;;;4.60;;
68089;SDS011;54880;50.986;6.990;2024-02-21T05:03:19;16.88;;;4.38;;
68089;SDS011;54880;50.986;6.990;2024-02-21T05:05:45;12.37;;;4.20;;
68089;SDS011;54880;50.986;6.990;2024-02-21T05:08:10;19.40;;;5.00;;
68089;SDS011;54880;50.986;6.990;2024-02-21T05:10:35;16.00;;;5.63;;
68089;SDS011;54880;50.986;6.990;2024-02-21T05:13:01;17.83;;;4.90;;
68089;SDS011;54880;50.986;6.990;2024-02-21T05:15:26;12.60;;;4.43;;
68089;SDS011;54880;50.986;6.990;2024-02-21T05:17:51;16.63;;;4.57;;
68089;SDS011;54880;50.986;6.990;2024-02-21T05:20:16;15.30;;;4.83;;
68089;SDS011;54880;50.986;6.990;2024-02-21T05:22:42;12.53;;;4.20;;
68089;SDS011;54880;50.986;6.990;2024-02-21T05:25:07;12.40;;;4.10;;
68089;SDS011;54880;50.986;6.990;2024-02-21T05:27:33;14.90;;;4.27;;
68089;SDS011;54880;50.986;6.990;2024-02-21T05:29:58;16.02;;;4.28;;
68089;SDS011;54880;50.986;6.990;2024-02-21T05:32:23;14.63;;;4.40;;
68089;SDS011;54880;50.986;6.990;2024-02-21T05:34:49;13.33;;;4.00;;
68089;SDS011;54880;50.986;6.990;2024-02-21T05:37:15;13.23;;;4.45;;
68089;SDS011;54880;50.986;6.990;2024-02-21T05:39:41;12.83;;;3.70;;
68089;SDS011;54880;50.986;6.990;2024-02-21T05:42:06;15.93;;;4.27;;
68089;SDS011;54880;50.986;6.990;2024-02-21T05:44:31;14.27;;;4.07;;
68089;SDS011;54880;50.986;6.990;2024-02-21T05:46:57;14.40;;;4.53;;
68089;SDS011;54880;50.986;6.990;2024-02-21T05:49:22;13.63;;;3.90;;
68089;SDS011;54880;50.986;6.990;2024-02-21T05:51:47;16.95;;;4.68;;
68089;SDS011;54880;50.986;6.990;2024-02-21T05:54:15;14.30;;;4.38;;
68089;SDS011;54880;50.986;6.990;2024-02-21T05:56:47;12.37;;;4.43;;
68089;SDS011;54880;50.986;6.990;2024-02-21T05:59:12;13.80;;;3.40;;
68089;SDS011;54880;50.986;6.990;2024-02-21T06:01:38;14.37;;;3.60;;
68089;SDS011;54880;50.986;6.990;2024-02-21T06:04:03;14.80;;;3.87;;
68089;SDS011;54880;50.986;6.990;2024-02-21T06:06:29;15.75;;;4.18;;
68089;SDS011;54880;50.986;6.990;2024-02-21T06:08:54;12.20;;;3.90;;
68089;SDS011;54880;50.986;6.990;2024-02-21T06:11:20;17.35;;;3.78;;
68089;SDS011;54880;50.986;6.990;2024-02-21T06:13:46;12.57;;;3.50;;
68089;SDS011;54880;50.986;6.990;2024-02-21T06:16:11;14.23;;;3.10;;
68089;SDS011;54880;50.986;6.990;2024-02-21T06:18:36;14.20;;;3.60;;
68089;SDS011;54880;50.986;6.990;2024-02-21T06:21:05;14.00;;;3.90;;
68089;SDS011;54880;50.986;6.990;2024-02-21T06:23:30;12.35;;;3.53;;
68089;SDS011;54880;50.986;6.990;2024-02-21T06:25:55;12.57;;;3.93;;
68089;SDS011;54880;50.986;6.990;2024-02-21T06:28:21;12.63;;;3.10;;
68089;SDS011;54880;50.986;6.990;2024-02-21T06:30:46;16.63;;;3.70;;
68089;SDS011;54880;50.986;6.990;2024-02-21T06:33:11;12.40;;;4.20;;
68089;SDS011;54880;50.986;6.990;2024-02-21T06:35:37;16.33;;;3.20;;
68089;SDS011;54880;50.986;6.990;2024-02-21T06:38:06;16.77;;;4.18;;
68089;SDS011;54880;50.986;6.990;2024-02-21T06:40:31;14.27;;;3.90;;
68089;SDS011;54880;50.986;6.990;2024-02-21T06:43:03;13.52;;;4.50;;
68089;SDS011;54880;50.986;6.990;2024-02-21T06:45:28;15.10;;;3.90;;
68089;SDS011;54880;50.986;6.990;2024-02-21T06:47:54;12.77;;;4.00;;
68089;SDS011;54880;50.986;6.990;2024-02-21T06:50:19;16.60;;;4.30;;
68089;SDS011;54880;50.986;6.990;2024-02-21T06:52:44;13.50;;;4.00;;
68089;SDS011;54880;50.986;6.990;2024-02-21T06:55:09;15.50;;;4.00;;
68089;SDS011;54880;50.986;6.990;2024-02-21T06:57:35;21.43;;;4.93;;
68089;SDS011;54880;50.986;6.990;2024-02-21T07:00:00;14.77;;;3.73;;
68089;SDS011;54880;50.986;6.990;2024-02-21T07:02:25;12.90;;;4.20;;
68089;SDS011;54880;50.986;6.990;2024-02-21T07:04:51;15.63;;;4.00;;
68089;SDS011;54880;50.986;6.990;2024-02-21T07:07:16;10.20;;;3.70;;
68089;SDS011;54880;50.986;6.990;2024-02-21T07:09:41;14.90;;;3.80;;
68089;SDS011;54880;50.986;6.990;2024-02-21T07:12:06;10.03;;;3.60;;
68089;SDS011;54880;50.986;6.990;2024-02-21T07:14:32;11.57;;;3.33;;
68089;SDS011;54880;50.986;6.990;2024-02-21T07:16:57;11.45;;;3.72;;
68089;SDS011;54880;50.986;6.990;2024-02-21T07:19:23;12.43;;;3.50;;
68089;SDS011;54880;50.986;6.990;2024-02-21T07:21:48;14.90;;;3.60;;
68089;SDS011;54880;50.986;6.990;2024-02-21T07:24:13;13.03;;;4.00;;
68089;SDS011;54880;50.986;6.990;2024-02-21T07:26:42;11.77;;;3.70;;
68089;SDS011;54880;50.986;6.990;2024-02-21T07:29:08;13.10;;;3.53;;
68089;SDS011;54880;50.986;6.990;2024-02-21T07:31:38;12.82;;;3.08;;
68089;SDS011;54880;50.986;6.990;2024-02-21T07:34:03;11.10;;;3.70;;
68089;SDS011;54880;50.986;6.990;2024-02-21T07:36:29;9.23;;;3.17;;
68089;SDS011;54880;50.986;6.990;2024-02-21T07:38:55;11.07;;;3.50;;
68089;SDS011;54880;50.986;6.990;2024-02-21T07:41:20;11.53;;;3.27;;
68089;SDS011;54880;50.986;6.990;2024-02-21T07:43:46;9.80;;;3.30;;
68089;SDS011;54880;50.986;6.990;2024-02-21T07:46:13;11.47;;;3.20;;
68089;SDS011;54880;50.986;6.990;2024-02-21T07:48:38;11.30;;;3.07;;
68089;SDS011;54880;50.986;6.990;2024-02-21T07:51:04;11.03;;;3.20;;
68089;SDS011;54880;50.986;6.990;2024-02-21T07:53:29;12.25;;;3.00;;
68089;SDS011;54880;50.986;6.990;2024-02-21T07:55:54;7.47;;;2.43;;
68089;SDS011;54880;50.986;6.990;2024-02-21T07:58:20;10.10;;;3.00;;
68089;SDS011;54880;50.986;6.990;2024-02-21T08:00:45;11.70;;;2.90;;
68089;SDS011;54880;50.986;6.990;2024-02-21T08:03:10;17.33;;;3.20;;
68089;SDS011;54880;50.986;6.990;2024-02-21T08:05:35;12.30;;;2.77;;
68089;SDS011;54880;50.986;6.990;2024-02-21T08:08:01;13.10;;;3.10;;
68089;SDS011;54880;50.986;6.990;2024-02-21T08:10:27;10.13;;;2.75;;
68089;SDS011;54880;50.986;6.990;2024-02-21T08:12:53;12.33;;;3.30;;
68089;SDS011;54880;50.986;6.990;2024-02-21T08:15:18;17.67;;;3.10;;
68089;SDS011;54880;50.986;6.990;2024-02-21T08:17:43;9.00;;;3.00;;
68089;SDS011;54880;50.986;6.990;2024-02-21T08:20:09;8.00;;;2.53;;
68089;SDS011;54880;50.986;6.990;2024-02-21T08:22:37;10.13;;;2.80;;
68089;SDS011;54880;50.986;6.990;2024-02-21T08:25:02;10.50;;;2.80;;
68089;SDS011;54880;50.986;6.990;2024-02-21T08:27:28;11.63;;;3.30;;
68089;SDS011;54880;50.986;6.990;2024-02-21T08:29:53;11.00;;;3.60;;
68089;SDS011;54880;50.986;6.990;2024-02-21T08:32:18;12.03;;;2.80;;
68089;SDS011;54880;50.986;6.990;2024-02-21T08:34:43;11.90;;;3.07;;
68089;SDS011;54880;50.986;6.990;2024-02-21T08:37:09;11.27;;;2.73;;
68089;SDS011;54880;50.986;6.990;2024-02-21T08:39:35;9.25;;;2.97;;
68089;SDS011;54880;50.986;6.990;2024-02-21T08:42:01;13.80;;;3.30;;
68089;SDS011;54880;50.986;6.990;2024-02-21T08:44:27;9.30;;;3.17;;
68089;SDS011;54880;50.986;6.990;2024-02-21T08:46:53;12.40;;;3.88;;
68089;SDS011;54880;50.986;6.990;2024-02-21T08:49:18;10.30;;;3.37;;
68089;SDS011;54880;50.986;6.990;2024-02-21T08:51:43;13.13;;;3.57;;
68089;SDS011;54880;50.986;6.990;2024-02-21T08:54:08;14.30;;;3.13;;
68089;SDS011;54880;50.986;6.990;2024-02-21T08:56:34;14.37;;;3.87;;
68089;SDS011;54880;50.986;6.990;2024-02-21T08:59:00;11.75;;;3.22;;
68089;SDS011;54880;50.986;6.990;2024-02-21T09:01:26;12.40;;;3.50;;
68089;SDS011;54880;50.986;6.990;2024-02-21T09:03:51;13.75;;;3.55;;
68089;SDS011;54880;50.986;6.990;2024-02-21T09:06:18;11.93;;;3.40;;
68089;SDS011;54880;50.986;6.990;2024-02-21T09:08:44;15.80;;;3.60;;
68089;SDS011;54880;50.986;6.990;2024-02-21T09:11:10;13.33;;;3.53;;
68089;SDS011;54880;50.986;6.990;2024-02-21T09:13:35;15.47;;;3.83;;
68089;SDS011;54880;50.986;6.990;2024-02-21T09:16:00;11.43;;;3.40;;
68089;SDS011;54880;50.986;6.990;2024-02-21T09:18:26;12.93;;;3.42;;
68089;SDS011;54880;50.986;6.990;2024-02-21T09:20:51;13.13;;;3.30;;
68089;SDS011;54880;50.986;6.990;2024-02-21T09:23:17;8.82;;;2.67;;
68089;SDS011;54880;50.986;6.990;2024-02-21T09:25:44;9.77;;;3.30;;
68089;SDS011;54880;50.986;6.990;2024-02-21T09:28:11;11.60;;;3.25;;
68089;SDS011;54880;50.986;6.990;2024-02-21T09:30:36;13.00;;;3.40;;
68089;SDS011;54880;50.986;6.990;2024-02-21T09:33:03;12.20;;;2.73;;
68089;SDS011;54880;50.986;6.990;2024-02-21T09:35:30;12.30;;;3.28;;
68089;SDS011;54880;50.986;6.990;2024-02-21T09:37:55;12.88;;;3.05;;
68089;SDS011;54880;50.986;6.990;2024-02-21T09:40:21;10.87;;;3.40;;
68089;SDS011;54880;50.986;6.990;2024-02-21T09:42:47;12.30;;;3.97;;
68089;SDS011;54880;50.986;6.990;2024-02-21T09:47:39;13.87;;;3.10;;
68089;SDS011;54880;50.986;6.990;2024-02-21T09:50:06;13.87;;;3.33;;
68089;SDS011;54880;50.986;6.990;2024-02-21T09:52:32;8.80;;;3.25;;
68089;SDS011;54880;50.986;6.990;2024-02-21T09:54:58;11.77;;;3.37;;
68089;SDS011;54880;50.986;6.990;2024-02-21T09:57:23;10.15;;;3.15;;
68089;SDS011;54880;50.986;6.990;2024-02-21T09:59:50;12.82;;;2.78;;
68089;SDS011;54880;50.986;6.990;2024-02-21T10:02:16;11.45;;;3.00;;
68089;SDS011;54880;50.986;6.990;2024-02-21T10:04:41;11.17;;;3.57;;
68089;SDS011;54880;50.986;6.990;2024-02-21T10:07:07;13.87;;;3.03;;
68089;SDS011;54880;50.986;6.990;2024-02-21T10:09:32;9.03;;;3.00;;
68089;SDS011;54880;50.986;6.990;2024-02-21T10:12:11;13.10;;;3.45;;
68089;SDS011;54880;50.986;6.990;2024-02-21T10:14:36;12.57;;;2.80;;
68089;SDS011;54880;50.986;6.990;2024-02-21T10:17:01;13.13;;;3.57;;
68089;SDS011;54880;50.986;6.990;2024-02-21T10:19:27;11.80;;;3.07;;
68089;SDS011;54880;50.986;6.990;2024-02-21T10:22:08;10.20;;;3.03;;
68089;SDS011;54880;50.986;6.990;2024-02-21T10:24:34;10.57;;;2.60;;
68089;SDS011;54880;50.986;6.990;2024-02-21T10:27:03;11.43;;;3.03;;
68089;SDS011;54880;50.986;6.990;2024-02-21T10:29:29;10.75;;;3.00;;
68089;SDS011;54880;50.986;6.990;2024-02-21T10:32:03;11.13;;;2.60;;
68089;SDS011;54880;50.986;6.990;2024-02-21T10:34:28;10.40;;;2.90;;
68089;SDS011;54880;50.986;6.990;2024-02-21T10:36:59;12.07;;;2.83;;
68089;SDS011;54880;50.986;6.990;2024-02-21T10:39:24;10.97;;;2.80;;
68089;SDS011;54880;50.986;6.990;2024-02-21T10:41:50;13.40;;;2.70;;
68089;SDS011;54880;50.986;6.990;2024-02-21T10:44:16;11.20;;;2.60;;
68089;SDS011;54880;50.986;6.990;2024-02-21T10:46:42;10.80;;;2.78;;
68089;SDS011;54880;50.986;6.990;2024-02-21T10:49:10;10.40;;;2.80;;
68089;SDS011;54880;50.986;6.990;2024-02-21T10:51:36;9.13;;;2.55;;
68089;SDS011;54880;50.986;6.990;2024-02-21T10:54:13;9.43;;;2.30;;
68089;SDS011;54880;50.986;6.990;2024-02-21T10:56:41;11.50;;;2.83;;
68089;SDS011;54880;50.986;6.990;2024-02-21T10:59:08;9.77;;;2.67;;
68089;SDS011;54880;50.986;6.990;2024-02-21T11:01:33;14.90;;;3.30;;
68089;SDS011;54880;50.986;6.990;2024-02-21T11:04:10;10.45;;;2.78;;
68089;SDS011;54880;50.986;6.990;2024-02-21T11:06:38;8.98;;;2.53;;
68089;SDS011;54880;50.986;6.990;2024-02-21T11:09:04;10.32;;;2.50;;
68089;SDS011;54880;50.986;6.990;2024-02-21T11:11:33;10.77;;;2.53;;
68089;SDS011;54880;50.986;6.990;2024-02-21T11:14:05;9.57;;;2.20;;
68089;SDS011;54880;50.986;6.990;2024-02-21T11:16:34;18.38;;;3.22;;
68089;SDS011;54880;50.986;6.990;2024-02-21T11:19:04;9.80;;;2.80;;
68089;SDS011;54880;50.986;6.990;2024-02-21T11:21:33;10.82;;;2.50;;
68089;SDS011;54880;50.986;6.990;2024-02-21T11:23:59;10.68;;;2.53;;
68089;SDS011;54880;50.986;6.990;2024-02-21T11:26:24;9.90;;;3.00;;
68089;SDS011;54880;50.986;6.990;2024-02-21T11:28:56;7.87;;;2.40;;
68089;SDS011;54880;50.986;6.990;2024-02-21T11:31:21;9.70;;;2.30;;
68089;SDS011;54880;50.986;6.990;2024-02-21T11:33:47;8.83;;;2.50;;
68089;SDS011;54880;50.986;6.990;2024-02-21T11:36:22;11.23;;;3.33;;
68089;SDS011;54880;50.986;6.990;2024-02-21T11:38:47;11.73;;;2.63;;
68089;SDS011;54880;50.986;6.990;2024-02-21T11:41:13;13.07;;;3.00;;
68089;SDS011;54880;50.986;6.990;2024-02-21T11:43:38;10.60;;;2.20;;
68089;SDS011;54880;50.986;6.990;2024-02-21T11:46:03;7.87;;;2.67;;
68089;SDS011;54880;50.986;6.990;2024-02-21T11:48:31;10.73;;;2.20;;
68089;SDS011;54880;50.986;6.990;2024-02-21T11:50:56;10.55;;;2.28;;
68089;SDS011;54880;50.986;6.990;2024-02-21T11:53:22;8.47;;;2.57;;
68089;SDS011;54880;50.986;6.990;2024-02-21T11:55:47;9.80;;;2.70;;
68089;SDS011;54880;50.986;6.990;2024-02-21T11:58:12;11.70;;;2.70;;
68089;SDS011;54880;50.986;6.990;2024-02-21T12:00:38;11.70;;;2.17;;
68089;SDS011;54880;50.986;6.990;2024-02-21T12:03:04;10.50;;;3.00;;
68089;SDS011;54880;50.986;6.990;2024-02-21T12:05:29;13.07;;;2.80;;
68089;SDS011;54880;50.986;6.990;2024-02-21T12:07:55;11.37;;;2.40;;
68089;SDS011;54880;50.986;6.990;2024-02-21T12:10:20;12.45;;;2.50;;
68089;SDS011;54880;50.986;6.990;2024-02-21T12:12:46;12.30;;;2.40;;
68089;SDS011;54880;50.986;6.990;2024-02-21T12:15:11;11.13;;;2.83;;
68089;SDS011;54880;50.986;6.990;2024-02-21T12:17:36;11.65;;;2.50;;
68089;SDS011;54880;50.986;6.990;2024-02-21T12:20:02;10.13;;;2.17;;
68089;SDS011;54880;50.986;6.990;2024-02-21T12:22:30;10.63;;;2.35;;
68089;SDS011;54880;50.986;6.990;2024-02-21T12:24:57;8.77;;;2.60;;
68089;SDS011;54880;50.986;6.990;2024-02-21T12:27:23;11.75;;;2.85;;
68089;SDS011;54880;50.986;6.990;2024-02-21T12:29:48;11.03;;;2.77;;
68089;SDS011;54880;50.986;6.990;2024-02-21T12:32:14;14.20;;;2.70;;
68089;SDS011;54880;50.986;6.990;2024-02-21T12:34:39;8.23;;;2.27;;
68089;SDS011;54880;50.986;6.990;2024-02-21T12:37:04;9.63;;;2.10;;
68089;SDS011;54880;50.986;6.990;2024-02-21T12:39:30;11.40;;;2.90;;
68089;SDS011;54880;50.986;6.990;2024-02-21T12:41:56;9.67;;;2.40;;
68089;SDS011;54880;50.986;6.990;2024-02-21T12:44:22;9.25;;;2.20;;
68089;SDS011;54880;50.986;6.990;2024-02-21T12:46:47;9.13;;;2.53;;
68089;SDS011;54880;50.986;6.990;2024-02-21T12:49:17;9.67;;;2.50;;
68089;SDS011;54880;50.986;6.990;2024-02-21T12:51:43;10.13;;;2.38;;
68089;SDS011;54880;50.986;6.990;2024-02-21T12:54:08;9.90;;;2.55;;
68089;SDS011;54880;50.986;6.990;2024-02-21T12:56:36;9.03;;;2.27;;
68089;SDS011;54880;50.986;6.990;2024-02-21T12:59:01;8.60;;;2.38;;
68089;SDS011;54880;50.986;6.990;2024-02-21T13:01:26;8.07;;;2.37;;
68089;SDS011;54880;50.986;6.990;2024-02-21T13:03:53;8.10;;;2.30;;
68089;SDS011;54880;50.986;6.990;2024-02-21T13:06:19;8.82;;;2.42;;
68089;SDS011;54880;50.986;6.990;2024-02-21T13:08:44;7.90;;;2.30;;
68089;SDS011;54880;50.986;6.990;2024-02-21T13:11:11;9.18;;;2.30;;
68089;SDS011;54880;50.986;6.990;2024-02-21T13:13:37;7.30;;;2.42;;
68089;SDS011;54880;50.986;6.990;2024-02-21T13:16:03;9.10;;;2.42;;
68089;SDS011;54880;50.986;6.990;2024-02-21T13:18:28;9.70;;;2.47;;
68089;SDS011;54880;50.986;6.990;2024-02-21T13:20:54;8.93;;;2.03;;
68089;SDS011;54880;50.986;6.990;2024-02-21T13:23:19;10.33;;;2.33;;
68089;SDS011;54880;50.986;6.990;2024-02-21T13:25:46;9.27;;;2.20;;
68089;SDS011;54880;50.986;6.990;2024-02-21T13:28:12;7.83;;;2.37;;
68089;SDS011;54880;50.986;6.990;2024-02-21T13:30:37;8.98;;;2.05;;
68089;SDS011;54880;50.986;6.990;2024-02-21T13:33:03;11.90;;;2.63;;
68089;SDS011;54880;50.986;6.990;2024-02-21T13:35:28;7.27;;;2.20;;
68089;SDS011;54880;50.986;6.990;2024-02-21T13:37:54;9.90;;;2.57;;
68089;SDS011;54880;50.986;6.990;2024-02-21T13:40:19;10.00;;;2.17;;
68089;SDS011;54880;50.986;6.990;2024-02-21T13:42:44;8.13;;;2.20;;
68089;SDS011;54880;50.986;6.990;2024-02-21T13:45:10;9.73;;;2.77;;
68089;SDS011;54880;50.986;6.990;2024-02-21T13:47:36;8.83;;;2.40;;
68089;SDS011;54880;50.986;6.990;2024-02-21T13:50:02;11.68;;;2.65;;
68089;SDS011;54880;50.986;6.990;2024-02-21T13:52:29;9.27;;;2.17;;
68089;SDS011;54880;50.986;6.990;2024-02-21T13:54:54;11.77;;;2.37;;
68089;SDS011;54880;50.986;6.990;2024-02-21T13:57:20;6.43;;;1.97;;
68089;SDS011;54880;50.986;6.990;2024-02-21T13:59:45;8.93;;;2.53;;
68089;SDS011;54880;50.986;6.990;2024-02-21T14:02:10;11.47;;;2.80;;
68089;SDS011;54880;50.986;6.990;2024-02-21T14:04:35;10.17;;;2.40;;
68089;SDS011;54880;50.986;6.990;2024-02-21T14:07:01;9.33;;;2.43;;
68089;SDS011;54880;50.986;6.990;2024-02-21T14:09:26;8.73;;;2.20;;
68089;SDS011;54880;50.986;6.990;2024-02-21T14:11:52;10.20;;;2.50;;
68089;SDS011;54880;50.986;6.990;2024-02-21T14:14:17;8.60;;;2.13;;
68089;SDS011;54880;50.986;6.990;2024-02-21T14:16:43;9.13;;;2.13;;
68089;SDS011;54880;50.986;6.990;2024-02-21T14:19:08;9.60;;;2.40;;
68089;SDS011;54880;50.986;6.990;2024-02-21T14:21:34;9.67;;;2.20;;
68089;SDS011;54880;50.986;6.990;2024-02-21T14:24:02;9.85;;;2.42;;
68089;SDS011;54880;50.986;6.990;2024-02-21T14:26:28;7.45;;;2.50;;
68089;SDS011;54880;50.986;6.990;2024-02-21T14:28:53;12.53;;;2.67;;